createdAt,value
2018-08-28T00:00:08.530Z,14.90
2018-08-28T00:02:37.720Z,14.90
2018-08-28T00:05:06.928Z,14.90
2018-08-28T00:07:36.819Z,14.90
2018-08-28T00:10:06.411Z,14.90
2018-08-28T00:12:36.253Z,15.00
2018-08-28T00:15:06.070Z,15.00
2018-08-28T00:17:35.184Z,15.00
2018-08-28T00:20:04.378Z,15.00
2018-08-28T00:22:33.513Z,15.00
2018-08-28T00:25:02.717Z,15.00
2018-08-28T00:27:31.923Z,15.00
2018-08-28T00:30:01.097Z,14.90
2018-08-28T00:32:30.960Z,14.90
2018-08-28T00:35:00.231Z,14.90
2018-08-28T00:37:29.481Z,14.80
2018-08-28T00:39:58.641Z,14.80
2018-08-28T00:42:27.960Z,14.80
2018-08-28T00:44:57.098Z,14.80
2018-08-28T00:47:26.328Z,14.80
2018-08-28T00:49:55.527Z,14.80
2018-08-28T00:52:24.748Z,14.80
2018-08-28T00:54:54.700Z,14.80
2018-08-28T00:57:23.844Z,14.80
2018-08-28T00:59:53.024Z,14.80
2018-08-28T01:02:22.360Z,14.70
2018-08-28T01:04:51.458Z,14.60
2018-08-28T01:07:20.736Z,14.60
2018-08-28T01:09:49.955Z,14.50
2018-08-28T01:12:19.090Z,14.50
2018-08-28T01:14:48.434Z,14.40
2018-08-28T01:17:17.589Z,14.30
2018-08-28T01:19:46.826Z,14.30
2018-08-28T01:22:17.337Z,14.20
2018-08-28T01:24:46.485Z,14.20
2018-08-28T01:27:15.687Z,14.20
2018-08-28T01:29:44.846Z,14.20
2018-08-28T01:32:13.985Z,14.20
2018-08-28T01:34:43.126Z,14.20
2018-08-28T01:37:12.505Z,14.20
2018-08-28T01:39:41.627Z,14.20
2018-08-28T01:42:10.877Z,14.20
2018-08-28T01:44:40.061Z,14.20
2018-08-28T01:47:09.254Z,14.20
2018-08-28T01:49:38.422Z,14.10
2018-08-28T01:52:07.596Z,14.00
2018-08-28T01:54:36.753Z,13.90
2018-08-28T01:57:06.045Z,13.90
2018-08-28T01:59:35.203Z,13.90
2018-08-28T02:02:04.386Z,13.80
2018-08-28T02:04:33.556Z,13.80
2018-08-28T02:07:02.933Z,13.80
2018-08-28T02:09:32.087Z,13.70
2018-08-28T02:12:01.270Z,13.70
2018-08-28T02:14:30.453Z,13.70
2018-08-28T02:16:59.672Z,13.60
2018-08-28T02:19:28.893Z,13.60
2018-08-28T02:21:58.104Z,13.60
2018-08-28T02:24:27.256Z,13.50
2018-08-28T02:26:56.466Z,13.50
2018-08-28T02:29:25.664Z,13.40
2018-08-28T02:31:54.864Z,13.40
2018-08-28T02:34:23.984Z,13.40
2018-08-28T02:36:54.152Z,13.30
2018-08-28T02:39:23.313Z,13.30
2018-08-28T02:41:52.506Z,13.30
2018-08-28T02:44:21.676Z,13.20
2018-08-28T02:46:51.866Z,13.30
2018-08-28T02:49:20.997Z,13.20
2018-08-28T02:51:50.677Z,13.20
2018-08-28T02:54:19.905Z,13.10
2018-08-28T02:56:49.087Z,13.10
2018-08-28T02:59:18.294Z,13.10
2018-08-28T03:01:47.423Z,13.10
2018-08-28T03:04:16.605Z,13.00
2018-08-28T03:06:46.044Z,13.00
2018-08-28T03:09:15.229Z,13.00
2018-08-28T03:11:44.414Z,13.00
2018-08-28T03:14:14.412Z,13.00
2018-08-28T03:16:43.625Z,13.00
2018-08-28T03:19:12.803Z,12.90
2018-08-28T03:21:42.936Z,12.90
2018-08-28T03:24:12.621Z,13.00
2018-08-28T03:26:41.764Z,13.00
2018-08-28T03:29:11.272Z,13.00
2018-08-28T03:31:46.093Z,12.90
2018-08-28T03:34:14.732Z,12.90
2018-08-28T03:36:43.453Z,12.90
2018-08-28T03:39:12.149Z,12.90
2018-08-28T03:41:46.885Z,12.90
2018-08-28T03:44:21.604Z,12.90
2018-08-28T03:46:50.775Z,13.00
2018-08-28T03:49:20.725Z,13.00
2018-08-28T03:51:49.861Z,13.00
2018-08-28T03:54:19.013Z,13.10
2018-08-28T03:56:48.160Z,13.10
2018-08-28T03:59:17.337Z,13.10
2018-08-28T04:01:46.551Z,13.20
2018-08-28T04:04:15.702Z,13.20
2018-08-28T04:06:44.904Z,13.20
2018-08-28T04:09:14.060Z,13.20
2018-08-28T04:11:43.269Z,13.20
2018-08-28T04:14:12.412Z,13.30
2018-08-28T04:16:41.568Z,13.30
2018-08-28T04:19:10.732Z,13.30
2018-08-28T04:21:39.953Z,13.30
2018-08-28T04:24:09.139Z,13.20
2018-08-28T04:26:38.355Z,13.20
2018-08-28T04:29:07.669Z,13.20
2018-08-28T04:31:36.808Z,13.20
2018-08-28T04:34:05.973Z,13.20
2018-08-28T04:36:35.132Z,13.20
2018-08-28T04:39:05.872Z,13.20
2018-08-28T04:41:35.043Z,13.20
2018-08-28T04:44:04.221Z,13.20
2018-08-28T04:46:33.449Z,13.20
2018-08-28T04:49:03.250Z,13.30
2018-08-28T04:51:32.497Z,13.30
2018-08-28T04:54:01.807Z,13.30
2018-08-28T04:56:30.928Z,13.40
2018-08-28T04:59:00.211Z,13.50
2018-08-28T05:01:29.381Z,13.50
2018-08-28T05:03:58.572Z,13.60
2018-08-28T05:06:27.898Z,13.60
2018-08-28T05:08:57.069Z,13.60
2018-08-28T05:11:26.251Z,13.60
2018-08-28T05:13:55.410Z,13.60
2018-08-28T05:16:24.550Z,13.70
2018-08-28T05:18:53.720Z,13.80
2018-08-28T05:21:22.963Z,13.90
2018-08-28T05:23:52.098Z,14.00
2018-08-28T05:26:21.329Z,14.00
2018-08-28T05:28:50.500Z,14.10
2018-08-28T05:31:19.620Z,14.10
2018-08-28T05:33:48.821Z,14.20
2018-08-28T05:36:17.997Z,14.30
2018-08-28T05:38:47.144Z,14.40
2018-08-28T05:41:16.387Z,14.50
2018-08-28T05:43:45.540Z,14.60
2018-08-28T05:46:14.746Z,14.70
2018-08-28T05:48:43.959Z,14.80
2018-08-28T05:51:13.108Z,14.90
2018-08-28T05:53:42.204Z,15.00
2018-08-28T05:56:11.491Z,15.10
2018-08-28T05:58:40.549Z,15.20
2018-08-28T06:01:09.730Z,15.30
2018-08-28T06:03:38.858Z,15.40
2018-08-28T06:06:08.306Z,15.50
2018-08-28T06:08:37.457Z,15.50
2018-08-28T06:11:06.715Z,15.60
2018-08-28T06:13:36.216Z,15.60
2018-08-28T06:16:05.379Z,15.60
2018-08-28T06:18:35.156Z,15.70
2018-08-28T06:21:04.336Z,15.70
2018-08-28T06:23:33.476Z,15.70
2018-08-28T06:26:02.713Z,15.70
2018-08-28T06:28:32.008Z,15.70
2018-08-28T06:31:01.184Z,15.80
2018-08-28T06:33:30.429Z,15.80
2018-08-28T06:35:59.609Z,15.90
2018-08-28T06:38:28.838Z,15.90
2018-08-28T06:40:57.960Z,16.00
2018-08-28T06:43:27.172Z,16.00
2018-08-28T06:45:56.458Z,16.10
2018-08-28T06:48:25.601Z,16.10
2018-08-28T06:50:54.901Z,16.20
2018-08-28T06:53:24.084Z,16.30
2018-08-28T06:55:53.257Z,16.30
2018-08-28T06:58:22.441Z,16.30
2018-08-28T07:00:52.486Z,16.30
2018-08-28T07:03:21.681Z,16.40
2018-08-28T07:05:50.852Z,16.40
2018-08-28T07:08:20.148Z,16.40
2018-08-28T07:10:49.338Z,16.40
2018-08-28T07:13:19.173Z,16.50
2018-08-28T07:15:48.617Z,16.60
2018-08-28T07:18:17.969Z,16.70
2018-08-28T07:20:47.490Z,16.70
2018-08-28T07:23:16.771Z,16.70
2018-08-28T07:25:45.968Z,16.80
2018-08-28T07:28:15.234Z,16.90
2018-08-28T07:30:44.782Z,17.00
2018-08-28T07:33:14.380Z,17.00
2018-08-28T07:35:43.625Z,17.10
2018-08-28T07:38:12.798Z,17.20
2018-08-28T07:40:41.954Z,17.30
2018-08-28T07:43:11.159Z,17.30
2018-08-28T07:45:40.420Z,17.30
2018-08-28T07:48:09.606Z,17.40
2018-08-28T07:50:38.796Z,17.50
2018-08-28T07:53:07.963Z,17.50
2018-08-28T07:55:37.264Z,17.50
2018-08-28T07:58:06.433Z,17.60
2018-08-28T08:00:35.669Z,17.70
2018-08-28T08:03:05.012Z,17.90
2018-08-28T08:05:34.173Z,18.00
2018-08-28T08:08:03.409Z,18.10
2018-08-28T08:10:32.668Z,18.20
2018-08-28T08:13:01.790Z,18.20
2018-08-28T08:15:30.974Z,18.20
2018-08-28T08:18:00.249Z,18.20
2018-08-28T08:20:29.397Z,18.20
2018-08-28T08:22:58.535Z,18.20
2018-08-28T08:25:29.264Z,18.30
2018-08-28T08:27:58.528Z,18.40
2018-08-28T08:30:27.658Z,18.60
2018-08-28T08:32:56.832Z,18.60
2018-08-28T08:35:25.986Z,18.60
2018-08-28T08:37:55.153Z,18.70
2018-08-28T08:40:24.298Z,18.60
2018-08-28T08:42:53.542Z,18.70
2018-08-28T08:45:22.700Z,18.70
2018-08-28T08:47:51.916Z,18.70
2018-08-28T08:50:21.189Z,18.80
2018-08-28T08:52:50.457Z,18.90
2018-08-28T08:55:19.661Z,18.80
2018-08-28T08:57:49.082Z,18.90
2018-08-28T09:00:18.259Z,19.00
2018-08-28T09:02:47.423Z,18.90
2018-08-28T09:05:16.607Z,18.90
2018-08-28T09:07:45.755Z,18.80
2018-08-28T09:10:14.985Z,18.70
2018-08-28T09:12:44.115Z,18.80
2018-08-28T09:15:13.339Z,18.90
2018-08-28T09:17:42.541Z,19.00
2018-08-28T09:20:11.768Z,19.10
2018-08-28T09:22:41.118Z,19.30
2018-08-28T09:25:10.273Z,19.50
2018-08-28T09:27:39.448Z,19.50
2018-08-28T09:30:09.184Z,19.40
2018-08-28T09:32:38.309Z,19.60
2018-08-28T09:35:07.566Z,19.60
2018-08-28T09:37:36.744Z,19.80
2018-08-28T09:40:07.014Z,19.80
2018-08-28T09:42:36.217Z,20.10
2018-08-28T09:45:05.569Z,20.30
2018-08-28T09:47:34.749Z,20.00
2018-08-28T09:50:05.026Z,20.10
2018-08-28T09:52:34.339Z,20.10
2018-08-28T09:55:03.504Z,20.30
2018-08-28T09:57:32.750Z,20.10
2018-08-28T10:00:02.797Z,20.00
2018-08-28T10:02:31.964Z,19.90
2018-08-28T10:05:01.148Z,19.90
2018-08-28T10:07:30.379Z,19.80
2018-08-28T10:09:59.552Z,19.90
2018-08-28T10:12:28.696Z,19.90
2018-08-28T10:14:57.840Z,19.70
2018-08-28T10:17:27.023Z,19.70
2018-08-28T10:19:56.125Z,19.80
2018-08-28T10:22:25.337Z,19.80
2018-08-28T10:24:55.241Z,19.80
2018-08-28T10:27:25.082Z,19.90
2018-08-28T10:29:55.418Z,19.90
2018-08-28T10:32:25.153Z,20.10
2018-08-28T10:34:54.482Z,20.20
2018-08-28T10:37:23.599Z,20.40
2018-08-28T10:39:52.904Z,20.30
2018-08-28T10:42:22.090Z,20.50
2018-08-28T10:44:51.271Z,20.60
2018-08-28T10:47:20.423Z,20.90
2018-08-28T10:49:49.625Z,21.30
2018-08-28T10:52:18.916Z,21.20
2018-08-28T10:54:48.143Z,21.20
2018-08-28T10:57:17.361Z,21.40
2018-08-28T10:59:46.533Z,21.50
2018-08-28T11:02:15.712Z,21.60
2018-08-28T11:04:45.417Z,21.30
2018-08-28T11:07:14.556Z,21.00
2018-08-28T11:09:43.717Z,20.90
2018-08-28T11:12:12.864Z,20.60
2018-08-28T11:14:42.014Z,20.40
2018-08-28T11:17:12.042Z,20.20
2018-08-28T11:19:41.299Z,20.10
2018-08-28T11:22:10.483Z,19.90
2018-08-28T11:24:39.817Z,19.80
2018-08-28T11:27:09.101Z,19.90
2018-08-28T11:29:38.267Z,19.90
2018-08-28T11:32:07.445Z,19.90
2018-08-28T11:34:36.589Z,20.10
2018-08-28T11:37:05.939Z,20.40
2018-08-28T11:39:35.173Z,20.50
2018-08-28T11:42:04.333Z,20.70
2018-08-28T11:44:33.606Z,20.60
2018-08-28T11:47:02.942Z,20.60
2018-08-28T11:49:32.074Z,20.50
2018-08-28T11:52:01.274Z,20.40
2018-08-28T11:54:30.478Z,20.30
2018-08-28T11:56:59.688Z,20.20
2018-08-28T11:59:28.910Z,20.20
2018-08-28T12:01:58.141Z,20.20
2018-08-28T12:04:27.239Z,20.20
2018-08-28T12:06:57.129Z,20.10
2018-08-28T12:09:26.349Z,20.00
2018-08-28T12:11:55.826Z,19.90
2018-08-28T12:14:24.977Z,19.90
2018-08-28T12:16:54.149Z,19.90
2018-08-28T12:19:23.351Z,19.80
2018-08-28T12:21:52.530Z,19.70
2018-08-28T12:24:21.670Z,19.60
2018-08-28T12:26:51.587Z,19.70
2018-08-28T12:29:21.583Z,19.80
2018-08-28T12:31:50.798Z,19.90
2018-08-28T12:34:19.949Z,19.80
2018-08-28T12:36:49.513Z,19.90
2018-08-28T12:39:18.639Z,19.90
2018-08-28T12:41:47.812Z,20.00
2018-08-28T12:44:27.622Z,20.00
2018-08-28T12:46:56.861Z,20.10
2018-08-28T12:49:26.040Z,20.10
2018-08-28T12:51:55.285Z,20.10
2018-08-28T12:54:24.485Z,20.00
2018-08-28T12:56:53.662Z,20.00
2018-08-28T12:59:24.313Z,20.00
2018-08-28T13:01:54.348Z,20.10
2018-08-28T13:04:23.599Z,20.10
2018-08-28T13:06:52.860Z,20.10
2018-08-28T13:09:22.032Z,20.10
2018-08-28T13:11:51.281Z,20.20
2018-08-28T13:14:20.690Z,20.30
2018-08-28T13:16:49.902Z,20.30
2018-08-28T13:19:19.139Z,20.20
2018-08-28T13:21:48.308Z,20.20
2018-08-28T13:24:17.517Z,20.10
2018-08-28T13:26:47.248Z,20.10
2018-08-28T13:29:16.499Z,20.00
2018-08-28T13:31:45.698Z,20.00
2018-08-28T13:34:14.962Z,20.00
2018-08-28T13:36:44.121Z,20.00
2018-08-28T13:39:13.438Z,19.90
2018-08-28T13:41:42.588Z,20.00
2018-08-28T13:44:13.278Z,20.00
2018-08-28T13:46:42.588Z,20.10
2018-08-28T13:49:11.781Z,20.20
2018-08-28T13:51:41.504Z,20.20
2018-08-28T13:54:10.936Z,20.30
2018-08-28T13:56:40.441Z,20.40
2018-08-28T13:59:10.171Z,20.50
2018-08-28T14:01:39.334Z,20.50
2018-08-28T14:04:08.786Z,20.70
2018-08-28T14:06:38.194Z,20.70
2018-08-28T14:09:07.400Z,20.80
2018-08-28T14:11:36.898Z,20.90
2018-08-28T14:14:06.315Z,20.90
2018-08-28T14:16:35.429Z,20.80
2018-08-28T14:19:04.976Z,20.80
2018-08-28T14:21:34.201Z,20.80
2018-08-28T14:24:03.457Z,20.80
2018-08-28T14:26:33.017Z,20.80
2018-08-28T14:29:02.199Z,20.80
2018-08-28T14:31:32.317Z,20.80
2018-08-28T14:34:01.712Z,20.70
2018-08-28T14:36:31.630Z,20.60
2018-08-28T14:39:01.618Z,20.60
2018-08-28T14:41:30.792Z,20.60
2018-08-28T14:44:00.368Z,20.70
2018-08-28T14:46:30.128Z,20.70
2018-08-28T14:48:59.446Z,20.70
2018-08-28T14:51:28.841Z,20.70
2018-08-28T14:53:58.001Z,20.80
2018-08-28T14:56:27.774Z,20.70
2018-08-28T14:58:57.497Z,20.80
2018-08-28T15:01:26.680Z,21.00
2018-08-28T15:03:56.133Z,20.90
2018-08-28T15:06:27.028Z,20.90
2018-08-28T15:08:56.162Z,21.00
2018-08-28T15:11:26.060Z,20.90
2018-08-28T15:13:55.265Z,20.90
2018-08-28T15:16:24.475Z,21.00
2018-08-28T15:18:53.713Z,21.20
2018-08-28T15:21:23.109Z,21.30
2018-08-28T15:23:52.569Z,21.30
2018-08-28T15:26:23.740Z,21.20
2018-08-28T15:28:53.307Z,21.10
2018-08-28T15:31:22.514Z,21.00
2018-08-28T15:33:51.679Z,21.00
2018-08-28T15:36:20.853Z,21.00
2018-08-28T15:38:50.284Z,21.10
2018-08-28T15:41:19.479Z,21.40
2018-08-28T15:43:48.917Z,21.60
2018-08-28T15:46:18.874Z,21.80
2018-08-28T15:48:48.081Z,22.00
2018-08-28T15:51:17.303Z,21.90
2018-08-28T15:53:46.698Z,21.60
2018-08-28T15:56:16.137Z,21.40
2018-08-28T15:58:45.577Z,21.30
2018-08-28T16:01:14.740Z,21.30
2018-08-28T16:03:43.878Z,21.40
2018-08-28T16:06:14.163Z,21.40
2018-08-28T16:08:43.649Z,21.40
2018-08-28T16:11:12.991Z,21.40
2018-08-28T16:13:42.176Z,21.20
2018-08-28T16:16:11.325Z,21.50
2018-08-28T16:18:40.541Z,22.20
2018-08-28T16:21:09.726Z,22.80
2018-08-28T16:23:42.603Z,23.10
2018-08-28T16:26:11.913Z,22.80
2018-08-28T16:28:41.130Z,22.70
2018-08-28T16:31:10.554Z,22.80
2018-08-28T16:33:39.756Z,23.00
2018-08-28T16:36:08.930Z,22.90
2018-08-28T16:38:38.132Z,22.50
2018-08-28T16:41:07.483Z,21.90
2018-08-28T16:43:36.565Z,21.30
2018-08-28T16:46:06.010Z,21.30
2018-08-28T16:48:36.386Z,21.20
2018-08-28T16:51:05.397Z,21.20
2018-08-28T16:53:35.416Z,21.30
2018-08-28T16:56:04.580Z,21.00
2018-08-28T16:58:33.772Z,21.00
2018-08-28T17:01:03.148Z,21.10
2018-08-28T17:03:33.213Z,20.80
2018-08-28T17:06:02.581Z,20.80
2018-08-28T17:08:32.065Z,20.70
2018-08-28T17:11:02.294Z,20.50
2018-08-28T17:13:31.658Z,20.30
2018-08-28T17:16:01.165Z,20.20
2018-08-28T17:18:30.568Z,20.10
2018-08-28T17:21:00.025Z,20.10
2018-08-28T17:23:29.473Z,19.90
2018-08-28T17:25:59.006Z,19.90
2018-08-28T17:28:28.334Z,19.50
2018-08-28T17:30:57.560Z,19.50
2018-08-28T17:33:26.676Z,19.40
2018-08-28T17:35:57.104Z,19.20
2018-08-28T17:38:26.310Z,19.10
2018-08-28T17:40:56.476Z,19.00
2018-08-28T17:43:25.628Z,19.00
2018-08-28T17:45:54.805Z,18.80
2018-08-28T17:48:24.013Z,18.80
2018-08-28T17:50:53.460Z,19.20
2018-08-28T17:53:22.666Z,19.30
2018-08-28T17:55:51.969Z,19.10
2018-08-28T17:58:21.535Z,19.10
2018-08-28T18:00:51.881Z,18.70
2018-08-28T18:03:21.260Z,18.50
2018-08-28T18:05:50.467Z,18.40
2018-08-28T18:08:19.861Z,18.30
2018-08-28T18:10:49.389Z,18.10
2018-08-28T18:13:18.398Z,18.00
2018-08-28T18:15:47.636Z,17.80
2018-08-28T18:18:17.229Z,17.70
2018-08-28T18:20:46.404Z,17.60
2018-08-28T18:23:15.765Z,17.50
2018-08-28T18:25:44.985Z,17.30
2018-08-28T18:28:14.496Z,17.10
2018-08-28T18:30:43.658Z,16.90
2018-08-28T18:33:13.826Z,16.80
2018-08-28T18:35:43.066Z,16.80
2018-08-28T18:38:12.927Z,16.70
2018-08-28T18:40:42.128Z,16.70
2018-08-28T18:43:11.421Z,16.70
2018-08-28T18:45:41.540Z,16.60
2018-08-28T18:48:11.087Z,16.50
2018-08-28T18:50:40.515Z,16.40
2018-08-28T18:53:09.757Z,16.40
2018-08-28T18:55:38.887Z,16.40
2018-08-28T18:58:08.762Z,16.30
2018-08-28T19:00:38.178Z,16.30
2018-08-28T19:03:07.500Z,16.20
2018-08-28T19:05:36.909Z,16.10
2018-08-28T19:08:06.264Z,16.00
2018-08-28T19:10:35.454Z,15.90
2018-08-28T19:13:05.033Z,15.80
2018-08-28T19:15:34.342Z,15.80
2018-08-28T19:18:03.700Z,15.70
2018-08-28T19:20:33.202Z,15.80
2018-08-28T19:23:02.314Z,15.70
2018-08-28T19:25:31.442Z,15.70
2018-08-28T19:28:01.464Z,15.70
2018-08-28T19:30:30.717Z,15.60
2018-08-28T19:32:59.965Z,15.50
2018-08-28T19:35:29.129Z,15.40
2018-08-28T19:37:58.658Z,15.30
2018-08-28T19:40:27.829Z,15.30
2018-08-28T19:42:57.034Z,15.30
2018-08-28T19:45:26.196Z,15.30
2018-08-28T19:47:55.406Z,15.30
2018-08-28T19:50:24.608Z,15.30
2018-08-28T19:52:54.041Z,15.30
2018-08-28T19:55:23.249Z,15.40
2018-08-28T19:57:52.481Z,15.40
2018-08-28T20:00:21.722Z,15.40
2018-08-28T20:02:50.918Z,15.50
2018-08-28T20:05:20.337Z,15.40
2018-08-28T20:07:49.575Z,15.50
2018-08-28T20:10:18.794Z,15.50
2018-08-28T20:12:48.010Z,15.60
2018-08-28T20:15:17.151Z,15.60
2018-08-28T20:17:46.341Z,15.60
2018-08-28T20:20:15.606Z,15.60
2018-08-28T20:22:44.819Z,15.60
2018-08-28T20:25:14.130Z,15.60
2018-08-28T20:27:43.403Z,15.50
2018-08-28T20:30:12.605Z,15.50
2018-08-28T20:32:41.749Z,15.30
2018-08-28T20:35:10.923Z,15.20
2018-08-28T20:37:40.184Z,15.20
2018-08-28T20:40:09.373Z,15.10
2018-08-28T20:42:38.572Z,15.10
2018-08-28T20:45:07.782Z,15.10
2018-08-28T20:47:38.485Z,15.00
2018-08-28T20:50:07.629Z,15.00
2018-08-28T20:52:36.875Z,14.90
2018-08-28T20:55:06.596Z,14.90
2018-08-28T20:57:35.796Z,14.80
2018-08-28T21:00:06.025Z,14.80
2018-08-28T21:02:35.220Z,14.70
2018-08-28T21:05:04.516Z,14.80
2018-08-28T21:07:33.857Z,14.80
2018-08-28T21:10:03.022Z,14.70
2018-08-28T21:12:32.246Z,14.70
2018-08-28T21:15:01.396Z,14.60
2018-08-28T21:17:30.582Z,14.60
2018-08-28T21:19:59.810Z,14.50
2018-08-28T21:22:29.554Z,14.50
2018-08-28T21:24:58.883Z,14.50
2018-08-28T21:27:28.071Z,14.50
2018-08-28T21:29:57.200Z,14.50
2018-08-28T21:32:26.341Z,14.40
2018-08-28T21:34:55.492Z,14.40
2018-08-28T21:37:24.731Z,14.30
2018-08-28T21:39:53.857Z,14.30
2018-08-28T21:42:23.218Z,14.30
2018-08-28T21:44:52.630Z,14.30
2018-08-28T21:47:21.813Z,14.20
2018-08-28T21:49:51.000Z,14.20
2018-08-28T21:52:20.176Z,14.10
2018-08-28T21:54:49.335Z,14.10
2018-08-28T21:57:18.488Z,14.10
2018-08-28T21:59:48.345Z,14.10
2018-08-28T22:02:17.550Z,14.10
2018-08-28T22:04:46.765Z,14.00
2018-08-28T22:07:21.341Z,14.00
2018-08-28T22:09:50.513Z,14.00
2018-08-28T22:12:19.712Z,14.00
2018-08-28T22:14:48.891Z,14.00
2018-08-28T22:17:18.102Z,14.00
2018-08-28T22:19:47.753Z,13.90
2018-08-28T22:22:16.914Z,14.00
2018-08-28T22:24:46.095Z,14.00
2018-08-28T22:27:15.302Z,14.00
2018-08-28T22:29:44.530Z,14.00
2018-08-28T22:32:13.865Z,14.00
2018-08-28T22:34:43.046Z,13.90
2018-08-28T22:37:12.204Z,13.90
2018-08-28T22:39:42.565Z,13.90
2018-08-28T22:42:11.753Z,13.80
2018-08-28T22:44:40.941Z,13.80
2018-08-28T22:47:10.206Z,13.90
2018-08-28T22:49:39.361Z,13.90
2018-08-28T22:52:08.535Z,13.80
2018-08-28T22:54:37.708Z,13.80
2018-08-28T22:57:06.992Z,13.80
2018-08-28T22:59:36.192Z,13.80
2018-08-28T23:02:05.546Z,13.70
2018-08-28T23:04:34.763Z,13.70
2018-08-28T23:07:03.930Z,13.70
2018-08-28T23:09:33.068Z,13.70
2018-08-28T23:12:02.411Z,13.60
2018-08-28T23:14:31.638Z,13.60
2018-08-28T23:17:00.814Z,13.60
2018-08-28T23:19:30.007Z,13.60
2018-08-28T23:21:59.194Z,13.60
2018-08-28T23:24:28.446Z,13.50
2018-08-28T23:26:57.657Z,13.50
2018-08-28T23:29:26.820Z,13.50
2018-08-28T23:31:55.972Z,13.50
2018-08-28T23:34:25.077Z,13.50
2018-08-28T23:36:54.287Z,13.50
2018-08-28T23:39:23.976Z,13.40
2018-08-28T23:41:53.128Z,13.30
2018-08-28T23:44:22.364Z,13.30
2018-08-28T23:46:51.517Z,13.30
2018-08-28T23:49:20.687Z,13.20
2018-08-28T23:51:49.907Z,13.10
2018-08-28T23:54:19.075Z,13.10
2018-08-28T23:56:48.267Z,13.10
2018-08-28T23:59:17.645Z,13.10
